Observations for Trim Patrick St
| Time | AQI | Temp °C | Hum % | Pres Pa | CO μg/m³ | H₂S μg/m³ | NO μg/m³ | NO₂ μg/m³ | O₃ μg/m³ | SO₂ μg/m³ | PM1 μg/m³ | PM2.5 μg/m³ | PM10 μg/m³ |
|---|---|---|---|---|---|---|---|---|---|---|---|---|---|
| Friday 7 August 2026 | |||||||||||||
| 02:00 | 2 | 13.2 | 74 | 38,460 | 0.19 | 4.66 | 3.69 | 14.32 | 28.52 | 0 | 2.86 | 6.36 | 6.99 |
| 01:59 | 2 | 13.2 | 73 | 38,460 | 0.21 | 4.35 | 3.69 | 21.39 | 30.3 | 0 | 2.86 | 7.09 | 7.79 |
| 01:58 | 2 | 13.3 | 73 | 38,460 | 0.19 | 2.9 | 3.62 | 17.56 | 28.12 | 0 | 3.71 | 6.38 | 7.02 |
| 01:56 | 2 | 13.3 | 73 | 38,460 | 0.19 | 5.1 | 3.53 | 22.96 | 41.39 | 0 | 3.71 | 7.12 | 7.83 |
| 01:55 | 2 | 13.4 | 73 | 38,460 | 0.19 | 3.31 | 3.5 | 15.63 | 26.76 | 0 | 3.71 | 8.54 | 9.4 |
| 01:54 | 2 | 13.4 | 73 | 38,460 | 0.19 | 3.65 | 3.47 | 16.46 | 24.81 | 0 | 2 | 5.69 | 6.26 |
| 01:53 | 2 | 13.4 | 73 | 38,460 | 0.19 | 3.86 | 3.54 | 17.05 | 29.77 | 0 | 2.86 | 7.12 | 7.83 |
| 01:52 | 2 | 13.4 | 72 | 38,460 | 0.2 | 3.21 | 3.56 | 17.98 | 25.96 | 0 | 2 | 6.43 | 7.07 |
| 01:51 | 2 | 13.5 | 72 | 38,460 | 0.18 | 1.6 | 3.55 | 12.37 | 26.72 | 0 | 2.86 | 6.43 | 7.07 |
| 01:50 | 2 | 13.5 | 72 | 38,460 | 0.19 | 2.56 | 3.56 | 11.68 | 30.85 | 0 | 2.86 | 6.45 | 7.1 |
| 01:49 | 2 | 13.5 | 72 | 38,460 | 0.18 | 2.33 | 3.58 | 17.17 | 22.38 | 0 | 2.86 | 7.88 | 8.67 |
| 01:48 | 2 | 13.6 | 72 | 38,460 | 0.19 | 2.85 | 3.55 | 11.56 | 32.6 | 0 | 2.86 | 6.44 | 7.08 |
| 01:47 | 2 | 13.6 | 72 | 38,460 | 0.17 | 3.73 | 3.57 | 22.64 | 25.12 | 0 | 2.86 | 7.16 | 7.88 |
| 01:46 | 2 | 13.6 | 72 | 38,460 | 0.18 | 2.07 | 3.56 | 12.09 | 26.88 | 0 | 3.71 | 7.17 | 7.89 |
| 01:45 | 2 | 13.7 | 72 | 38,460 | 0.19 | 3.53 | 3.54 | 15.14 | 29.26 | 0 | 3.71 | 7.19 | 7.91 |
| 01:44 | 2 | 13.7 | 72 | 38,460 | 0.19 | 2.72 | 3.52 | 13.84 | 30.76 | 0 | 2.86 | 6.45 | 7.1 |
| 01:43 | 2 | 13.7 | 72 | 38,460 | 0.18 | 2.67 | 3.5 | 13.11 | 26.21 | 0 | 2 | 6.46 | 7.11 |
| 01:42 | 2 | 13.7 | 72 | 38,460 | 0.19 | 2.98 | 3.52 | 14.61 | 29.13 | 0 | 2.86 | 6.49 | 7.13 |
| 01:41 | 2 | 13.8 | 72 | 38,460 | 0.18 | 3.06 | 3.47 | 19.01 | 32.21 | 0 | 3.71 | 7.21 | 7.93 |
| 01:40 | 2 | 13.8 | 71 | 38,460 | 0.19 | 1.84 | 3.47 | 13.47 | 27.66 | 0 | 2.86 | 6.5 | 7.15 |